sensor_id;sensor_type;location;lat;lon;timestamp;temperature;humidity
9925;DHT22;5001;51.674;7.868;2023-02-28T00:01:34;0.10;1.00
9925;DHT22;5001;51.674;7.868;2023-02-28T00:04:02;0.00;1.00
9925;DHT22;5001;51.674;7.868;2023-02-28T00:06:29;0.00;1.00
9925;DHT22;5001;51.674;7.868;2023-02-28T00:08:56;-0.10;1.00
9925;DHT22;5001;51.674;7.868;2023-02-28T00:11:25;-0.10;1.00
9925;DHT22;5001;51.674;7.868;2023-02-28T00:13:56;-0.20;1.00
9925;DHT22;5001;51.674;7.868;2023-02-28T00:16:25;-0.20;1.00
9925;DHT22;5001;51.674;7.868;2023-02-28T00:18:52;-0.20;1.00
9925;DHT22;5001;51.674;7.868;2023-02-28T00:21:22;-0.30;1.00
9925;DHT22;5001;51.674;7.868;2023-02-28T00:23:53;-0.40;1.00
9925;DHT22;5001;51.674;7.868;2023-02-28T00:26:20;-0.40;1.00
9925;DHT22;5001;51.674;7.868;2023-02-28T00:28:48;-0.50;1.00
9925;DHT22;5001;51.674;7.868;2023-02-28T00:31:15;-0.50;1.00
9925;DHT22;5001;51.674;7.868;2023-02-28T00:33:51;-0.50;1.00
9925;DHT22;5001;51.674;7.868;2023-02-28T00:36:23;-0.50;1.00
9925;DHT22;5001;51.674;7.868;2023-02-28T00:38:50;-0.40;1.00
9925;DHT22;5001;51.674;7.868;2023-02-28T00:41:17;-0.40;1.00
9925;DHT22;5001;51.674;7.868;2023-02-28T00:43:46;-0.50;1.00
9925;DHT22;5001;51.674;7.868;2023-02-28T00:46:14;-0.60;1.00
9925;DHT22;5001;51.674;7.868;2023-02-28T00:48:41;-0.80;1.00
9925;DHT22;5001;51.674;7.868;2023-02-28T00:51:08;-0.80;1.00
9925;DHT22;5001;51.674;7.868;2023-02-28T00:53:35;-0.90;1.00
9925;DHT22;5001;51.674;7.868;2023-02-28T00:56:02;-0.90;1.00
9925;DHT22;5001;51.674;7.868;2023-02-28T00:58:29;-1.00;1.00
9925;DHT22;5001;51.674;7.868;2023-02-28T01:00:57;-0.90;1.00
9925;DHT22;5001;51.674;7.868;2023-02-28T01:03:24;-0.80;1.00
9925;DHT22;5001;51.674;7.868;2023-02-28T01:05:51;-0.80;1.00
9925;DHT22;5001;51.674;7.868;2023-02-28T01:08:19;-0.80;1.00
9925;DHT22;5001;51.674;7.868;2023-02-28T01:10:46;-0.80;1.00
9925;DHT22;5001;51.674;7.868;2023-02-28T01:13:15;-1.00;1.00
9925;DHT22;5001;51.674;7.868;2023-02-28T01:15:50;-1.20;1.00
9925;DHT22;5001;51.674;7.868;2023-02-28T01:18:20;-1.10;1.00
9925;DHT22;5001;51.674;7.868;2023-02-28T01:20:48;-1.20;1.00
9925;DHT22;5001;51.674;7.868;2023-02-28T01:23:15;-1.20;1.00
9925;DHT22;5001;51.674;7.868;2023-02-28T01:25:42;-1.30;1.00
9925;DHT22;5001;51.674;7.868;2023-02-28T01:28:09;-1.30;1.00
9925;DHT22;5001;51.674;7.868;2023-02-28T01:30:36;-1.30;1.00
9925;DHT22;5001;51.674;7.868;2023-02-28T01:33:05;-1.40;1.00
9925;DHT22;5001;51.674;7.868;2023-02-28T01:35:33;-1.60;1.00
9925;DHT22;5001;51.674;7.868;2023-02-28T01:38:01;-1.80;1.00
9925;DHT22;5001;51.674;7.868;2023-02-28T01:40:47;-1.90;1.00
9925;DHT22;5001;51.674;7.868;2023-02-28T01:43:22;-2.00;1.00
9925;DHT22;5001;51.674;7.868;2023-02-28T01:45:50;-2.10;1.00
9925;DHT22;5001;51.674;7.868;2023-02-28T01:48:20;-2.10;1.00
9925;DHT22;5001;51.674;7.868;2023-02-28T01:50:48;-2.10;1.00
9925;DHT22;5001;51.674;7.868;2023-02-28T01:53:24;-2.10;1.00
9925;DHT22;5001;51.674;7.868;2023-02-28T01:55:53;-2.10;1.00
9925;DHT22;5001;51.674;7.868;2023-02-28T01:58:20;-2.10;1.00
9925;DHT22;5001;51.674;7.868;2023-02-28T02:00:48;-2.20;1.00
9925;DHT22;5001;51.674;7.868;2023-02-28T02:03:17;-2.20;1.00
9925;DHT22;5001;51.674;7.868;2023-02-28T02:05:45;-2.30;1.00
9925;DHT22;5001;51.674;7.868;2023-02-28T02:08:19;-2.30;1.00
9925;DHT22;5001;51.674;7.868;2023-02-28T02:10:52;-2.30;1.00
9925;DHT22;5001;51.674;7.868;2023-02-28T02:16:34;-2.40;1.00
9925;DHT22;5001;51.674;7.868;2023-02-28T02:46:19;-2.40;1.00
9925;DHT22;5001;51.674;7.868;2023-02-28T02:48:46;-2.20;1.00
9925;DHT22;5001;51.674;7.868;2023-02-28T02:51:17;-2.30;1.00
9925;DHT22;5001;51.674;7.868;2023-02-28T02:53:54;-2.30;1.00
9925;DHT22;5001;51.674;7.868;2023-02-28T02:56:26;-2.30;1.00
9925;DHT22;5001;51.674;7.868;2023-02-28T02:58:58;-2.50;1.00
9925;DHT22;5001;51.674;7.868;2023-02-28T03:01:29;-2.50;1.00
9925;DHT22;5001;51.674;7.868;2023-02-28T03:04:03;-2.60;1.00
9925;DHT22;5001;51.674;7.868;2023-02-28T03:06:31;-2.70;1.00
9925;DHT22;5001;51.674;7.868;2023-02-28T03:08:58;-2.80;1.00
9925;DHT22;5001;51.674;7.868;2023-02-28T03:11:26;-2.90;1.00
9925;DHT22;5001;51.674;7.868;2023-02-28T03:21:56;-2.90;1.00
9925;DHT22;5001;51.674;7.868;2023-02-28T03:28:00;-2.60;1.00
9925;DHT22;5001;51.674;7.868;2023-02-28T03:30:29;-2.50;1.00
9925;DHT22;5001;51.674;7.868;2023-02-28T03:33:12;-2.50;1.00
9925;DHT22;5001;51.674;7.868;2023-02-28T03:35:47;-2.40;1.00
9925;DHT22;5001;51.674;7.868;2023-02-28T03:38:20;-2.40;1.00
9925;DHT22;5001;51.674;7.868;2023-02-28T03:40:53;-2.40;1.00
9925;DHT22;5001;51.674;7.868;2023-02-28T03:43:26;-2.30;1.00
9925;DHT22;5001;51.674;7.868;2023-02-28T03:45:55;-2.40;1.00
9925;DHT22;5001;51.674;7.868;2023-02-28T03:48:30;-2.40;1.00
9925;DHT22;5001;51.674;7.868;2023-02-28T03:50:59;-2.40;1.00
9925;DHT22;5001;51.674;7.868;2023-02-28T03:53:35;-2.30;1.00
9925;DHT22;5001;51.674;7.868;2023-02-28T03:56:06;-2.20;1.00
9925;DHT22;5001;51.674;7.868;2023-02-28T03:58:55;-2.20;1.00
9925;DHT22;5001;51.674;7.868;2023-02-28T04:01:45;-2.30;1.00
9925;DHT22;5001;51.674;7.868;2023-02-28T04:04:13;-2.30;1.00
9925;DHT22;5001;51.674;7.868;2023-02-28T04:06:41;-2.40;1.00
9925;DHT22;5001;51.674;7.868;2023-02-28T04:09:12;-2.50;1.00
9925;DHT22;5001;51.674;7.868;2023-02-28T04:11:44;-2.60;1.00
9925;DHT22;5001;51.674;7.868;2023-02-28T04:14:12;-2.60;1.00
9925;DHT22;5001;51.674;7.868;2023-02-28T04:16:41;-2.50;1.00
9925;DHT22;5001;51.674;7.868;2023-02-28T04:19:09;-2.40;1.00
9925;DHT22;5001;51.674;7.868;2023-02-28T04:21:57;-2.40;1.00
9925;DHT22;5001;51.674;7.868;2023-02-28T04:24:26;-2.40;1.00
9925;DHT22;5001;51.674;7.868;2023-02-28T04:26:55;-2.40;1.00
9925;DHT22;5001;51.674;7.868;2023-02-28T04:29:27;-2.60;1.00
9925;DHT22;5001;51.674;7.868;2023-02-28T04:31:58;-2.80;1.00
9925;DHT22;5001;51.674;7.868;2023-02-28T04:34:27;-2.90;1.00
9925;DHT22;5001;51.674;7.868;2023-02-28T04:36:55;-2.90;1.00
9925;DHT22;5001;51.674;7.868;2023-02-28T04:39:37;-2.90;1.00
9925;DHT22;5001;51.674;7.868;2023-02-28T04:42:04;-2.80;1.00
9925;DHT22;5001;51.674;7.868;2023-02-28T04:44:31;-2.70;1.00
9925;DHT22;5001;51.674;7.868;2023-02-28T04:46:58;-2.70;1.00
9925;DHT22;5001;51.674;7.868;2023-02-28T04:49:25;-2.70;1.00
9925;DHT22;5001;51.674;7.868;2023-02-28T04:51:52;-2.80;1.00
9925;DHT22;5001;51.674;7.868;2023-02-28T04:54:19;-2.90;1.00
9925;DHT22;5001;51.674;7.868;2023-02-28T04:56:47;-2.90;1.00
9925;DHT22;5001;51.674;7.868;2023-02-28T04:59:16;-3.00;1.00
9925;DHT22;5001;51.674;7.868;2023-02-28T05:01:48;-3.10;1.00
9925;DHT22;5001;51.674;7.868;2023-02-28T05:04:15;-3.20;1.00
9925;DHT22;5001;51.674;7.868;2023-02-28T05:06:42;-3.30;1.00
9925;DHT22;5001;51.674;7.868;2023-02-28T05:09:09;-3.40;1.00
9925;DHT22;5001;51.674;7.868;2023-02-28T05:11:39;-3.50;1.00
9925;DHT22;5001;51.674;7.868;2023-02-28T05:14:10;-3.60;1.00
9925;DHT22;5001;51.674;7.868;2023-02-28T05:16:37;-3.70;1.00
9925;DHT22;5001;51.674;7.868;2023-02-28T05:19:04;-3.70;1.00
9925;DHT22;5001;51.674;7.868;2023-02-28T05:21:32;-3.70;1.00
9925;DHT22;5001;51.674;7.868;2023-02-28T05:24:02;-3.80;1.00
9925;DHT22;5001;51.674;7.868;2023-02-28T05:26:30;-3.80;1.00
9925;DHT22;5001;51.674;7.868;2023-02-28T05:28:57;-3.70;1.00
9925;DHT22;5001;51.674;7.868;2023-02-28T05:31:24;-3.70;1.00
9925;DHT22;5001;51.674;7.868;2023-02-28T05:33:51;-3.80;1.00
9925;DHT22;5001;51.674;7.868;2023-02-28T05:36:19;-3.90;1.00
9925;DHT22;5001;51.674;7.868;2023-02-28T05:38:49;-3.90;1.00
9925;DHT22;5001;51.674;7.868;2023-02-28T05:41:18;-4.00;1.00
9925;DHT22;5001;51.674;7.868;2023-02-28T05:43:48;-4.00;1.00
9925;DHT22;5001;51.674;7.868;2023-02-28T05:46:15;-3.90;1.00
9925;DHT22;5001;51.674;7.868;2023-02-28T05:48:47;-4.00;1.00
9925;DHT22;5001;51.674;7.868;2023-02-28T05:51:14;-4.00;1.00
9925;DHT22;5001;51.674;7.868;2023-02-28T05:53:41;-4.10;1.00
9925;DHT22;5001;51.674;7.868;2023-02-28T05:56:08;-4.00;1.00
9925;DHT22;5001;51.674;7.868;2023-02-28T05:58:35;-3.90;1.00
9925;DHT22;5001;51.674;7.868;2023-02-28T06:01:23;-3.80;1.00
9925;DHT22;5001;51.674;7.868;2023-02-28T06:03:51;-3.90;1.00
9925;DHT22;5001;51.674;7.868;2023-02-28T06:06:20;-3.90;1.00
9925;DHT22;5001;51.674;7.868;2023-02-28T06:08:47;-4.00;1.00
9925;DHT22;5001;51.674;7.868;2023-02-28T06:11:14;-4.10;1.00
9925;DHT22;5001;51.674;7.868;2023-02-28T06:13:41;-4.00;1.00
9925;DHT22;5001;51.674;7.868;2023-02-28T06:16:10;-3.90;1.00
9925;DHT22;5001;51.674;7.868;2023-02-28T06:18:38;-4.00;1.00
9925;DHT22;5001;51.674;7.868;2023-02-28T06:21:05;-4.00;1.00
9925;DHT22;5001;51.674;7.868;2023-02-28T06:23:32;-4.00;1.00
9925;DHT22;5001;51.674;7.868;2023-02-28T06:25:59;-4.00;1.00
9925;DHT22;5001;51.674;7.868;2023-02-28T06:28:26;-3.80;1.00
9925;DHT22;5001;51.674;7.868;2023-02-28T06:30:53;-3.70;1.00
9925;DHT22;5001;51.674;7.868;2023-02-28T06:33:20;-3.70;1.00
9925;DHT22;5001;51.674;7.868;2023-02-28T06:35:50;-3.80;1.00
9925;DHT22;5001;51.674;7.868;2023-02-28T06:38:17;-3.70;1.00
9925;DHT22;5001;51.674;7.868;2023-02-28T06:40:45;-3.70;1.00
9925;DHT22;5001;51.674;7.868;2023-02-28T06:43:19;-3.70;1.00
9925;DHT22;5001;51.674;7.868;2023-02-28T06:45:46;-3.60;1.00
9925;DHT22;5001;51.674;7.868;2023-02-28T06:48:13;-3.60;1.00
9925;DHT22;5001;51.674;7.868;2023-02-28T06:50:40;-3.40;1.00
9925;DHT22;5001;51.674;7.868;2023-02-28T06:53:07;-3.30;1.00
9925;DHT22;5001;51.674;7.868;2023-02-28T06:55:34;-3.20;1.00
9925;DHT22;5001;51.674;7.868;2023-02-28T06:58:01;-3.00;1.00
9925;DHT22;5001;51.674;7.868;2023-02-28T07:00:28;-2.80;1.00
9925;DHT22;5001;51.674;7.868;2023-02-28T07:02:55;-2.70;1.00
9925;DHT22;5001;51.674;7.868;2023-02-28T07:05:22;-2.50;1.00
9925;DHT22;5001;51.674;7.868;2023-02-28T07:07:49;-2.30;1.00
9925;DHT22;5001;51.674;7.868;2023-02-28T07:10:16;-2.10;1.00
9925;DHT22;5001;51.674;7.868;2023-02-28T07:12:46;-2.00;1.00
9925;DHT22;5001;51.674;7.868;2023-02-28T07:15:13;-2.00;1.00
9925;DHT22;5001;51.674;7.868;2023-02-28T07:17:40;-2.10;1.00
9925;DHT22;5001;51.674;7.868;2023-02-28T07:20:07;-2.10;1.00
9925;DHT22;5001;51.674;7.868;2023-02-28T07:22:35;-2.10;1.00
9925;DHT22;5001;51.674;7.868;2023-02-28T07:25:02;-1.90;1.00
9925;DHT22;5001;51.674;7.868;2023-02-28T07:27:29;-1.70;1.00
9925;DHT22;5001;51.674;7.868;2023-02-28T07:29:56;-1.60;1.00
9925;DHT22;5001;51.674;7.868;2023-02-28T07:32:23;-1.60;1.00
9925;DHT22;5001;51.674;7.868;2023-02-28T07:34:50;-1.60;1.00
9925;DHT22;5001;51.674;7.868;2023-02-28T07:37:17;-1.50;1.00
9925;DHT22;5001;51.674;7.868;2023-02-28T07:39:44;-1.50;1.00
9925;DHT22;5001;51.674;7.868;2023-02-28T07:42:11;-1.50;1.00
9925;DHT22;5001;51.674;7.868;2023-02-28T07:44:39;-1.50;1.00
9925;DHT22;5001;51.674;7.868;2023-02-28T07:47:09;-1.30;1.00
9925;DHT22;5001;51.674;7.868;2023-02-28T07:49:36;-1.20;1.00
9925;DHT22;5001;51.674;7.868;2023-02-28T07:52:05;-1.10;1.00
9925;DHT22;5001;51.674;7.868;2023-02-28T07:54:32;-1.00;1.00
9925;DHT22;5001;51.674;7.868;2023-02-28T07:56:59;-0.90;1.00
9925;DHT22;5001;51.674;7.868;2023-02-28T07:59:26;-0.80;1.00
9925;DHT22;5001;51.674;7.868;2023-02-28T08:01:57;-0.70;1.00
9925;DHT22;5001;51.674;7.868;2023-02-28T08:04:24;-0.60;1.00
9925;DHT22;5001;51.674;7.868;2023-02-28T08:06:51;-0.50;1.00
9925;DHT22;5001;51.674;7.868;2023-02-28T08:09:22;-0.30;1.00
9925;DHT22;5001;51.674;7.868;2023-02-28T08:11:49;-0.20;1.00
9925;DHT22;5001;51.674;7.868;2023-02-28T08:14:16;0.00;1.00
9925;DHT22;5001;51.674;7.868;2023-02-28T08:16:44;0.10;1.00
9925;DHT22;5001;51.674;7.868;2023-02-28T08:19:11;0.20;1.00
9925;DHT22;5001;51.674;7.868;2023-02-28T08:21:38;0.30;1.00
9925;DHT22;5001;51.674;7.868;2023-02-28T08:24:05;0.40;1.00
9925;DHT22;5001;51.674;7.868;2023-02-28T08:26:32;0.40;1.00
9925;DHT22;5001;51.674;7.868;2023-02-28T08:28:59;0.60;1.00
9925;DHT22;5001;51.674;7.868;2023-02-28T08:31:27;0.80;1.00
9925;DHT22;5001;51.674;7.868;2023-02-28T08:33:55;0.80;1.00
9925;DHT22;5001;51.674;7.868;2023-02-28T08:36:26;0.90;1.00
9925;DHT22;5001;51.674;7.868;2023-02-28T08:38:56;1.10;1.00
9925;DHT22;5001;51.674;7.868;2023-02-28T08:41:23;1.20;1.00
9925;DHT22;5001;51.674;7.868;2023-02-28T08:43:50;1.20;1.00
9925;DHT22;5001;51.674;7.868;2023-02-28T08:46:17;1.30;1.00
9925;DHT22;5001;51.674;7.868;2023-02-28T08:48:44;1.40;1.00
9925;DHT22;5001;51.674;7.868;2023-02-28T08:51:14;1.50;1.00
9925;DHT22;5001;51.674;7.868;2023-02-28T08:53:45;1.60;1.00
9925;DHT22;5001;51.674;7.868;2023-02-28T08:56:14;1.70;1.00
9925;DHT22;5001;51.674;7.868;2023-02-28T08:58:44;1.90;1.00
9925;DHT22;5001;51.674;7.868;2023-02-28T09:01:14;2.10;1.00
9925;DHT22;5001;51.674;7.868;2023-02-28T09:03:42;2.30;1.00
9925;DHT22;5001;51.674;7.868;2023-02-28T09:06:10;2.50;1.00
9925;DHT22;5001;51.674;7.868;2023-02-28T09:08:37;2.60;1.00
9925;DHT22;5001;51.674;7.868;2023-02-28T09:11:04;2.80;1.00
9925;DHT22;5001;51.674;7.868;2023-02-28T09:13:32;3.60;1.00
9925;DHT22;5001;51.674;7.868;2023-02-28T09:16:01;9.70;1.00
9925;DHT22;5001;51.674;7.868;2023-02-28T09:18:28;12.50;1.00
9925;DHT22;5001;51.674;7.868;2023-02-28T09:20:57;14.80;1.00
9925;DHT22;5001;51.674;7.868;2023-02-28T09:23:24;14.10;1.00
9925;DHT22;5001;51.674;7.868;2023-02-28T09:25:53;15.20;1.00
9925;DHT22;5001;51.674;7.868;2023-02-28T09:28:21;15.70;1.00
9925;DHT22;5001;51.674;7.868;2023-02-28T09:30:51;16.70;1.00
9925;DHT22;5001;51.674;7.868;2023-02-28T09:33:18;11.40;1.00
9925;DHT22;5001;51.674;7.868;2023-02-28T09:35:48;12.30;1.00
9925;DHT22;5001;51.674;7.868;2023-02-28T09:38:16;13.30;1.00
9925;DHT22;5001;51.674;7.868;2023-02-28T09:40:56;12.50;1.00
9925;DHT22;5001;51.674;7.868;2023-02-28T09:43:29;8.60;1.00
9925;DHT22;5001;51.674;7.868;2023-02-28T09:46:21;7.30;1.00
9925;DHT22;5001;51.674;7.868;2023-02-28T09:48:52;6.50;1.00
9925;DHT22;5001;51.674;7.868;2023-02-28T09:53:58;8.50;1.00
9925;DHT22;5001;51.674;7.868;2023-02-28T10:01:56;10.60;1.00
9925;DHT22;5001;51.674;7.868;2023-02-28T10:04:45;13.80;1.00
9925;DHT22;5001;51.674;7.868;2023-02-28T10:10:57;14.90;1.00
9925;DHT22;5001;51.674;7.868;2023-02-28T10:16:42;16.60;1.00
9925;DHT22;5001;51.674;7.868;2023-02-28T10:21:59;14.10;1.00
9925;DHT22;5001;51.674;7.868;2023-02-28T10:24:33;15.00;1.00
9925;DHT22;5001;51.674;7.868;2023-02-28T10:27:14;15.10;1.00
9925;DHT22;5001;51.674;7.868;2023-02-28T10:29:48;16.20;1.00
9925;DHT22;5001;51.674;7.868;2023-02-28T10:32:19;15.50;1.00
9925;DHT22;5001;51.674;7.868;2023-02-28T10:35:15;15.90;1.00
9925;DHT22;5001;51.674;7.868;2023-02-28T10:37:48;15.40;1.00
9925;DHT22;5001;51.674;7.868;2023-02-28T10:43:02;17.00;1.00
9925;DHT22;5001;51.674;7.868;2023-02-28T10:45:33;17.00;1.00
9925;DHT22;5001;51.674;7.868;2023-02-28T10:48:30;16.80;1.00
9925;DHT22;5001;51.674;7.868;2023-02-28T10:50:59;15.10;1.00
9925;DHT22;5001;51.674;7.868;2023-02-28T10:53:35;15.00;1.00
9925;DHT22;5001;51.674;7.868;2023-02-28T10:56:24;10.30;1.00
9925;DHT22;5001;51.674;7.868;2023-02-28T11:01:43;7.00;1.00
9925;DHT22;5001;51.674;7.868;2023-02-28T11:06:57;8.50;1.00
9925;DHT22;5001;51.674;7.868;2023-02-28T11:09:36;9.50;1.00
9925;DHT22;5001;51.674;7.868;2023-02-28T11:12:26;7.70;1.00
9925;DHT22;5001;51.674;7.868;2023-02-28T11:15:01;6.30;1.00
9925;DHT22;5001;51.674;7.868;2023-02-28T11:17:31;6.90;1.00
9925;DHT22;5001;51.674;7.868;2023-02-28T11:20:04;6.70;1.00
9925;DHT22;5001;51.674;7.868;2023-02-28T11:22:37;6.90;1.00
9925;DHT22;5001;51.674;7.868;2023-02-28T11:25:30;7.80;1.00
9925;DHT22;5001;51.674;7.868;2023-02-28T11:27:59;10.70;1.00
9925;DHT22;5001;51.674;7.868;2023-02-28T11:32:58;8.60;1.00
9925;DHT22;5001;51.674;7.868;2023-02-28T11:35:36;8.70;1.00
9925;DHT22;5001;51.674;7.868;2023-02-28T11:38:09;8.00;1.00
9925;DHT22;5001;51.674;7.868;2023-02-28T11:41:00;8.50;1.00
9925;DHT22;5001;51.674;7.868;2023-02-28T11:51:53;7.30;1.00
9925;DHT22;5001;51.674;7.868;2023-02-28T11:54:35;7.60;1.00
9925;DHT22;5001;51.674;7.868;2023-02-28T12:08:47;5.90;1.00
9925;DHT22;5001;51.674;7.868;2023-02-28T12:16:50;8.80;1.00
9925;DHT22;5001;51.674;7.868;2023-02-28T12:25:38;6.90;1.00
9925;DHT22;5001;51.674;7.868;2023-02-28T12:28:15;6.50;1.00
9925;DHT22;5001;51.674;7.868;2023-02-28T12:31:09;8.10;1.00
9925;DHT22;5001;51.674;7.868;2023-02-28T12:33:40;9.00;1.00
9925;DHT22;5001;51.674;7.868;2023-02-28T12:36:16;8.00;1.00
9925;DHT22;5001;51.674;7.868;2023-02-28T12:47:02;6.50;1.00
9925;DHT22;5001;51.674;7.868;2023-02-28T12:49:41;6.00;1.00
9925;DHT22;5001;51.674;7.868;2023-02-28T12:52:12;6.00;1.00
9925;DHT22;5001;51.674;7.868;2023-02-28T12:54:56;7.00;1.00
9925;DHT22;5001;51.674;7.868;2023-02-28T12:57:36;7.40;1.00
9925;DHT22;5001;51.674;7.868;2023-02-28T13:00:13;7.00;1.00
9925;DHT22;5001;51.674;7.868;2023-02-28T13:10:17;7.70;1.00
9925;DHT22;5001;51.674;7.868;2023-02-28T13:12:50;7.60;1.00
9925;DHT22;5001;51.674;7.868;2023-02-28T13:15:24;7.30;1.00
9925;DHT22;5001;51.674;7.868;2023-02-28T13:17:54;7.10;1.00
9925;DHT22;5001;51.674;7.868;2023-02-28T13:20:36;6.70;1.00
9925;DHT22;5001;51.674;7.868;2023-02-28T13:23:04;6.70;1.00
9925;DHT22;5001;51.674;7.868;2023-02-28T13:25:51;6.20;1.00
9925;DHT22;5001;51.674;7.868;2023-02-28T13:31:19;7.00;1.00
9925;DHT22;5001;51.674;7.868;2023-02-28T13:38:46;7.20;1.00
9925;DHT22;5001;51.674;7.868;2023-02-28T13:44:06;7.10;1.00
9925;DHT22;5001;51.674;7.868;2023-02-28T14:00:39;6.20;1.00
9925;DHT22;5001;51.674;7.868;2023-02-28T14:05:41;6.40;1.00
9925;DHT22;5001;51.674;7.868;2023-02-28T14:08:20;5.90;1.00
9925;DHT22;5001;51.674;7.868;2023-02-28T14:11:03;5.80;1.00
9925;DHT22;5001;51.674;7.868;2023-02-28T14:13:41;5.60;1.00
9925;DHT22;5001;51.674;7.868;2023-02-28T14:16:17;5.50;1.00
9925;DHT22;5001;51.674;7.868;2023-02-28T14:18:58;5.50;1.00
9925;DHT22;5001;51.674;7.868;2023-02-28T14:21:33;5.50;1.00
9925;DHT22;5001;51.674;7.868;2023-02-28T14:27:15;5.50;1.00
9925;DHT22;5001;51.674;7.868;2023-02-28T14:32:40;5.80;1.00
9925;DHT22;5001;51.674;7.868;2023-02-28T14:37:48;5.90;1.00
9925;DHT22;5001;51.674;7.868;2023-02-28T14:42:54;5.60;1.00
9925;DHT22;5001;51.674;7.868;2023-02-28T14:45:23;5.50;1.00
9925;DHT22;5001;51.674;7.868;2023-02-28T14:47:51;5.60;1.00
9925;DHT22;5001;51.674;7.868;2023-02-28T14:50:21;5.60;1.00
9925;DHT22;5001;51.674;7.868;2023-02-28T14:52:52;5.50;1.00
9925;DHT22;5001;51.674;7.868;2023-02-28T14:55:32;5.50;1.00
9925;DHT22;5001;51.674;7.868;2023-02-28T14:58:05;5.40;1.00
9925;DHT22;5001;51.674;7.868;2023-02-28T15:00:40;5.40;1.00
9925;DHT22;5001;51.674;7.868;2023-02-28T15:05:58;5.50;1.00
9925;DHT22;5001;51.674;7.868;2023-02-28T15:08:26;5.50;1.00
9925;DHT22;5001;51.674;7.868;2023-02-28T15:16:17;5.40;1.00
9925;DHT22;5001;51.674;7.868;2023-02-28T15:21:23;5.40;1.00
9925;DHT22;5001;51.674;7.868;2023-02-28T15:26:46;5.40;1.00
9925;DHT22;5001;51.674;7.868;2023-02-28T15:29:20;5.40;1.00
9925;DHT22;5001;51.674;7.868;2023-02-28T15:32:01;5.40;1.00
9925;DHT22;5001;51.674;7.868;2023-02-28T15:34:40;5.50;1.00
9925;DHT22;5001;51.674;7.868;2023-02-28T15:37:33;5.40;1.00
9925;DHT22;5001;51.674;7.868;2023-02-28T15:43:16;5.30;1.00
9925;DHT22;5001;51.674;7.868;2023-02-28T15:45:48;5.30;1.00
9925;DHT22;5001;51.674;7.868;2023-02-28T15:48:23;5.20;1.00
9925;DHT22;5001;51.674;7.868;2023-02-28T15:50:56;5.20;1.00
9925;DHT22;5001;51.674;7.868;2023-02-28T15:54:12;5.10;1.00
9925;DHT22;5001;51.674;7.868;2023-02-28T15:56:24;5.10;1.00
9925;DHT22;5001;51.674;7.868;2023-02-28T15:59:00;5.10;1.00
9925;DHT22;5001;51.674;7.868;2023-02-28T16:01:30;5.10;1.00
9925;DHT22;5001;51.674;7.868;2023-02-28T16:04:04;5.10;1.00
9925;DHT22;5001;51.674;7.868;2023-02-28T16:06:41;5.00;1.00
9925;DHT22;5001;51.674;7.868;2023-02-28T16:09:14;5.00;1.00
9925;DHT22;5001;51.674;7.868;2023-02-28T16:11:51;5.00;1.00
9925;DHT22;5001;51.674;7.868;2023-02-28T16:14:22;5.00;1.00
9925;DHT22;5001;51.674;7.868;2023-02-28T16:16:54;5.00;1.00
9925;DHT22;5001;51.674;7.868;2023-02-28T16:19:22;4.90;1.00
9925;DHT22;5001;51.674;7.868;2023-02-28T16:21:49;4.80;1.00
9925;DHT22;5001;51.674;7.868;2023-02-28T16:24:16;4.80;1.00
9925;DHT22;5001;51.674;7.868;2023-02-28T16:26:46;4.70;1.00
9925;DHT22;5001;51.674;7.868;2023-02-28T16:29:27;4.70;1.00
9925;DHT22;5001;51.674;7.868;2023-02-28T16:31:55;4.60;1.00
9925;DHT22;5001;51.674;7.868;2023-02-28T16:34:24;4.60;1.00
9925;DHT22;5001;51.674;7.868;2023-02-28T16:36:52;4.60;1.00
9925;DHT22;5001;51.674;7.868;2023-02-28T16:39:19;4.50;1.00
9925;DHT22;5001;51.674;7.868;2023-02-28T16:41:48;4.40;1.00
9925;DHT22;5001;51.674;7.868;2023-02-28T16:44:33;4.40;1.00
9925;DHT22;5001;51.674;7.868;2023-02-28T16:47:01;4.40;1.00
9925;DHT22;5001;51.674;7.868;2023-02-28T16:49:28;4.30;1.00
9925;DHT22;5001;51.674;7.868;2023-02-28T16:51:55;4.20;1.00
9925;DHT22;5001;51.674;7.868;2023-02-28T16:54:22;4.20;1.00
9925;DHT22;5001;51.674;7.868;2023-02-28T16:56:49;4.10;1.00
9925;DHT22;5001;51.674;7.868;2023-02-28T16:59:21;4.00;1.00
9925;DHT22;5001;51.674;7.868;2023-02-28T17:01:50;4.00;1.00
9925;DHT22;5001;51.674;7.868;2023-02-28T17:04:18;4.00;1.00
9925;DHT22;5001;51.674;7.868;2023-02-28T17:06:45;3.90;1.00
9925;DHT22;5001;51.674;7.868;2023-02-28T17:09:21;3.90;1.00
9925;DHT22;5001;51.674;7.868;2023-02-28T17:11:56;3.80;1.00
9925;DHT22;5001;51.674;7.868;2023-02-28T17:14:23;3.70;1.00
9925;DHT22;5001;51.674;7.868;2023-02-28T17:16:50;3.70;1.00
9925;DHT22;5001;51.674;7.868;2023-02-28T17:19:17;3.60;1.00
9925;DHT22;5001;51.674;7.868;2023-02-28T17:21:45;3.60;1.00
9925;DHT22;5001;51.674;7.868;2023-02-28T17:24:12;3.60;1.00
9925;DHT22;5001;51.674;7.868;2023-02-28T17:26:45;3.50;1.00
9925;DHT22;5001;51.674;7.868;2023-02-28T17:29:18;3.40;1.00
9925;DHT22;5001;51.674;7.868;2023-02-28T17:31:45;3.40;1.00
9925;DHT22;5001;51.674;7.868;2023-02-28T17:34:12;3.30;1.00
9925;DHT22;5001;51.674;7.868;2023-02-28T17:36:46;3.20;1.00
9925;DHT22;5001;51.674;7.868;2023-02-28T17:39:14;3.20;1.00
9925;DHT22;5001;51.674;7.868;2023-02-28T17:41:41;3.10;1.00
9925;DHT22;5001;51.674;7.868;2023-02-28T17:44:09;3.00;1.00
9925;DHT22;5001;51.674;7.868;2023-02-28T17:46:36;3.00;1.00
9925;DHT22;5001;51.674;7.868;2023-02-28T17:49:03;2.90;1.00
9925;DHT22;5001;51.674;7.868;2023-02-28T17:51:30;2.80;1.00
9925;DHT22;5001;51.674;7.868;2023-02-28T17:53:57;2.70;1.00
9925;DHT22;5001;51.674;7.868;2023-02-28T17:56:25;2.60;1.00
9925;DHT22;5001;51.674;7.868;2023-02-28T17:58:54;2.50;1.00
9925;DHT22;5001;51.674;7.868;2023-02-28T18:01:22;2.60;1.00
9925;DHT22;5001;51.674;7.868;2023-02-28T18:03:51;2.60;1.00
9925;DHT22;5001;51.674;7.868;2023-02-28T18:08:51;2.60;1.00
9925;DHT22;5001;51.674;7.868;2023-02-28T18:11:21;2.60;1.00
9925;DHT22;5001;51.674;7.868;2023-02-28T18:13:51;2.50;1.00
9925;DHT22;5001;51.674;7.868;2023-02-28T18:16:21;2.40;1.00
9925;DHT22;5001;51.674;7.868;2023-02-28T18:18:49;2.40;1.00
9925;DHT22;5001;51.674;7.868;2023-02-28T18:21:16;2.30;1.00
9925;DHT22;5001;51.674;7.868;2023-02-28T18:23:43;2.30;1.00
9925;DHT22;5001;51.674;7.868;2023-02-28T18:26:15;2.20;1.00
9925;DHT22;5001;51.674;7.868;2023-02-28T18:28:42;2.20;1.00
9925;DHT22;5001;51.674;7.868;2023-02-28T18:31:16;2.20;1.00
9925;DHT22;5001;51.674;7.868;2023-02-28T18:33:47;2.10;1.00
9925;DHT22;5001;51.674;7.868;2023-02-28T18:36:15;2.00;1.00
9925;DHT22;5001;51.674;7.868;2023-02-28T18:38:42;2.10;1.00
9925;DHT22;5001;51.674;7.868;2023-02-28T18:41:10;2.00;1.00
9925;DHT22;5001;51.674;7.868;2023-02-28T18:43:38;1.90;1.00
9925;DHT22;5001;51.674;7.868;2023-02-28T18:46:07;1.90;1.00
9925;DHT22;5001;51.674;7.868;2023-02-28T18:48:34;1.90;1.00
9925;DHT22;5001;51.674;7.868;2023-02-28T18:51:09;1.90;1.00
9925;DHT22;5001;51.674;7.868;2023-02-28T18:53:38;1.90;1.00
9925;DHT22;5001;51.674;7.868;2023-02-28T18:56:06;1.90;1.00
9925;DHT22;5001;51.674;7.868;2023-02-28T18:58:34;1.90;1.00
9925;DHT22;5001;51.674;7.868;2023-02-28T19:01:02;1.80;1.00
9925;DHT22;5001;51.674;7.868;2023-02-28T19:03:30;1.70;1.00
9925;DHT22;5001;51.674;7.868;2023-02-28T19:05:58;1.60;1.00
9925;DHT22;5001;51.674;7.868;2023-02-28T19:08:25;1.60;1.00
9925;DHT22;5001;51.674;7.868;2023-02-28T19:10:52;1.50;1.00
9925;DHT22;5001;51.674;7.868;2023-02-28T19:13:19;1.50;1.00
9925;DHT22;5001;51.674;7.868;2023-02-28T19:15:47;1.40;1.00
9925;DHT22;5001;51.674;7.868;2023-02-28T19:18:14;1.40;1.00
9925;DHT22;5001;51.674;7.868;2023-02-28T19:20:41;1.40;1.00
9925;DHT22;5001;51.674;7.868;2023-02-28T19:23:09;1.40;1.00
9925;DHT22;5001;51.674;7.868;2023-02-28T19:25:41;1.40;1.00
9925;DHT22;5001;51.674;7.868;2023-02-28T19:28:08;1.50;1.00
9925;DHT22;5001;51.674;7.868;2023-02-28T19:30:35;1.50;1.00
9925;DHT22;5001;51.674;7.868;2023-02-28T19:33:02;1.60;1.00
9925;DHT22;5001;51.674;7.868;2023-02-28T19:35:29;1.60;1.00
9925;DHT22;5001;51.674;7.868;2023-02-28T19:37:56;1.50;1.00
9925;DHT22;5001;51.674;7.868;2023-02-28T19:40:25;1.50;1.00
9925;DHT22;5001;51.674;7.868;2023-02-28T19:42:52;1.40;1.00
9925;DHT22;5001;51.674;7.868;2023-02-28T19:45:19;1.30;1.00